< < Back
Terminal Aerodrome Forecast


Current Version              Previous Versions:   1  2  3  4  5  6  7  8  9  

Terminal Aerodrome Forecast

320
FTUS42 KTAE 251121
TAFABY
TAF
KABY 251121Z 2512/2612 VRB03KT P6SM FEW250
     FM251700 15006KT P6SM SCT040
     FM260200 16003KT P6SM FEW250=

Latest METAR

219
SAUS70 KWBC 261000 RRC
MTRABY
METAR KABY 260953Z AUTO 12003KT 10SM CLR 24/22 A3005 RMK AO2 SLP173
T02390222


USA.gov is the U.S. government's official web portal to all federal, state and local government web resources and services.